N98CK KCLT-KMSN
Flight info
| Callsign | N98CK |
|---|---|
| Flight time | 1h 46m |
| Altitude | 3800 |
| Route | JOJJO5 DOOGE DCT FLM DCT MACES DCT BVT J89 CADIZ DCT OBK DCT BAE DCT |
| Aircraft | C750/M-VGD/C |
Departure
| Time | 2026-05-06 18:29 |
|---|---|
| Airport | Charlotte Douglas International Airport (KCLT) |
Arrival
| Time | 2026-05-06 20:16 |
|---|---|
| Airport | Dane County Regional Truax Field (KMSN) |
| Time | Latitude | Longitude | Altitude | Speed | Heading |
|---|---|---|---|---|---|
| 2026-05-06 18:01 | 35.21091 | -80.93155 | 737 ft | 0 kts | 86° |
| 2026-05-06 18:15 | 35.21093 | -80.93144 | 746 ft | 2 kts | 62° |
| 2026-05-06 18:15 | 35.21120 | -80.93129 | 737 ft | 5 kts | 351° |
| 2026-05-06 18:15 | 35.21131 | -80.93175 | 737 ft | 10 kts | 261° |
| 2026-05-06 18:16 | 35.21123 | -80.93278 | 737 ft | 12 kts | 266° |
| 2026-05-06 18:16 | 35.21124 | -80.93373 | 737 ft | 10 kts | 294° |
| 2026-05-06 18:16 | 35.21163 | -80.93433 | 737 ft | 8 kts | 313° |
| 2026-05-06 18:16 | 35.21196 | -80.93476 | 739 ft | 7 kts | 312° |
| 2026-05-06 18:17 | 35.21217 | -80.93540 | 739 ft | 10 kts | 258° |
| 2026-05-06 18:17 | 35.21221 | -80.93633 | 739 ft | 11 kts | 310° |
| 2026-05-06 18:17 | 35.21301 | -80.93650 | 739 ft | 13 kts | 355° |
| 2026-05-06 18:17 | 35.21399 | -80.93660 | 740 ft | 16 kts | 355° |
| 2026-05-06 18:18 | 35.21477 | -80.93742 | 739 ft | 17 kts | 314° |
| 2026-05-06 18:18 | 35.21575 | -80.93763 | 739 ft | 17 kts | 51° |
| 2026-05-06 18:18 | 35.21668 | -80.93681 | 741 ft | 17 kts | 41° |
| 2026-05-06 18:18 | 35.21762 | -80.93577 | 744 ft | 20 kts | 41° |
| 2026-05-06 18:19 | 35.21871 | -80.93458 | 744 ft | 22 kts | 46° |
| 2026-05-06 18:19 | 35.21973 | -80.93306 | 747 ft | 24 kts | 52° |
| 2026-05-06 18:19 | 35.22084 | -80.93161 | 749 ft | 16 kts | 47° |
| 2026-05-06 18:19 | 35.22090 | -80.93153 | 751 ft | 0 kts | 48° |
| 2026-05-06 18:20 | 35.22103 | -80.93133 | 751 ft | 12 kts | 50° |
| 2026-05-06 18:20 | 35.22191 | -80.93059 | 752 ft | 13 kts | 333° |
| 2026-05-06 18:20 | 35.22259 | -80.93130 | 753 ft | 15 kts | 319° |
| 2026-05-06 18:21 | 35.22325 | -80.93234 | 752 ft | 14 kts | 265° |
| 2026-05-06 18:21 | 35.22267 | -80.93307 | 750 ft | 12 kts | 224° |
| 2026-05-06 18:21 | 35.22231 | -80.93356 | 746 ft | 5 kts | 219° |
| 2026-05-06 18:21 | 35.22192 | -80.93411 | 748 ft | 13 kts | 231° |
| 2026-05-06 18:22 | 35.22108 | -80.93528 | 746 ft | 23 kts | 225° |
| 2026-05-06 18:22 | 35.21975 | -80.93705 | 744 ft | 32 kts | 230° |
| 2026-05-06 18:22 | 35.21833 | -80.93915 | 740 ft | 32 kts | 226° |
| 2026-05-06 18:22 | 35.21683 | -80.94107 | 735 ft | 31 kts | 232° |
| 2026-05-06 18:23 | 35.21545 | -80.94302 | 731 ft | 29 kts | 227° |
| 2026-05-06 18:23 | 35.21416 | -80.94480 | 727 ft | 27 kts | 229° |
| 2026-05-06 18:23 | 35.21316 | -80.94668 | 723 ft | 26 kts | 254° |
| 2026-05-06 18:23 | 35.21236 | -80.94844 | 722 ft | 23 kts | 227° |
| 2026-05-06 18:24 | 35.21191 | -80.94963 | 719 ft | 11 kts | 310° |
| 2026-05-06 18:24 | 35.21251 | -80.94990 | 720 ft | 8 kts | 357° |
| 2026-05-06 18:24 | 35.21310 | -80.94997 | 723 ft | 10 kts | 353° |
| 2026-05-06 18:24 | 35.21388 | -80.95000 | 723 ft | 13 kts | 360° |
| 2026-05-06 18:25 | 35.21493 | -80.95009 | 725 ft | 17 kts | 356° |
| 2026-05-06 18:25 | 35.21624 | -80.95019 | 728 ft | 21 kts | 356° |
| 2026-05-06 18:25 | 35.21781 | -80.95032 | 731 ft | 24 kts | 354° |
| 2026-05-06 18:25 | 35.21940 | -80.95047 | 734 ft | 21 kts | 356° |
| 2026-05-06 18:26 | 35.22078 | -80.95059 | 736 ft | 18 kts | 356° |
| 2026-05-06 18:26 | 35.22197 | -80.95070 | 738 ft | 16 kts | 356° |
| 2026-05-06 18:26 | 35.22298 | -80.95079 | 740 ft | 13 kts | 355° |
| 2026-05-06 18:26 | 35.22382 | -80.95087 | 741 ft | 11 kts | 355° |
| 2026-05-06 18:27 | 35.22450 | -80.95092 | 742 ft | 10 kts | 359° |
| 2026-05-06 18:27 | 35.22525 | -80.95097 | 741 ft | 11 kts | 354° |
| 2026-05-06 18:27 | 35.22610 | -80.95103 | 745 ft | 13 kts | 357° |
| 2026-05-06 18:27 | 35.22708 | -80.95117 | 747 ft | 14 kts | 340° |
| 2026-05-06 18:28 | 35.22733 | -80.95197 | 746 ft | 0 kts | 267° |
| 2026-05-06 18:28 | 35.22733 | -80.95199 | 746 ft | 2 kts | 266° |
| 2026-05-06 18:28 | 35.22722 | -80.95276 | 744 ft | 14 kts | 245° |
| 2026-05-06 18:29 | 35.22652 | -80.95309 | 745 ft | 15 kts | 175° |
| 2026-05-06 18:29 | 35.22225 | -80.95272 | 739 ft | 116 kts | 175° |
| 2026-05-06 18:29 | 35.21226 | -80.95184 | 931 ft | 156 kts | 176° |
| 2026-05-06 18:29 | 35.20113 | -80.95072 | 1641 ft | 163 kts | 176° |
| 2026-05-06 18:30 | 35.18987 | -80.94857 | 2482 ft | 170 kts | 174° |
| 2026-05-06 18:30 | 35.17718 | -80.94826 | 2872 ft | 196 kts | 198° |
| 2026-05-06 18:30 | 35.16552 | -80.95833 | 3272 ft | 221 kts | 231° |
| 2026-05-06 18:30 | 35.15976 | -80.97637 | 3870 ft | 240 kts | 264° |
| 2026-05-06 18:31 | 35.16403 | -80.99615 | 4869 ft | 252 kts | 297° |
| 2026-05-06 18:31 | 35.17665 | -81.01129 | 5906 ft | 256 kts | 315° |
| 2026-05-06 18:31 | 35.19090 | -81.02440 | 6889 ft | 257 kts | 317° |
| 2026-05-06 18:31 | 35.20498 | -81.03789 | 7877 ft | 258 kts | 314° |
| 2026-05-06 18:32 | 35.21875 | -81.05181 | 9011 ft | 256 kts | 313° |
| 2026-05-06 18:32 | 35.23260 | -81.06572 | 10003 ft | 259 kts | 313° |
| 2026-05-06 18:32 | 35.24692 | -81.07999 | 10470 ft | 277 kts | 314° |
| 2026-05-06 18:32 | 35.26262 | -81.09569 | 10577 ft | 305 kts | 314° |
| 2026-05-06 18:33 | 35.27973 | -81.11268 | 10895 ft | 322 kts | 314° |
| 2026-05-06 18:33 | 35.29722 | -81.12989 | 11719 ft | 323 kts | 314° |
| 2026-05-06 18:33 | 35.31467 | -81.14726 | 12503 ft | 325 kts | 313° |
| 2026-05-06 18:33 | 35.33222 | -81.16486 | 13237 ft | 328 kts | 313° |
| 2026-05-06 18:34 | 35.34998 | -81.18261 | 13928 ft | 331 kts | 313° |
| 2026-05-06 18:34 | 35.36792 | -81.20047 | 14575 ft | 334 kts | 313° |
| 2026-05-06 18:34 | 35.38602 | -81.21852 | 15214 ft | 336 kts | 314° |
| 2026-05-06 18:34 | 35.40422 | -81.23674 | 15857 ft | 340 kts | 314° |
| 2026-05-06 18:35 | 35.42258 | -81.25511 | 16450 ft | 342 kts | 314° |
| 2026-05-06 18:35 | 35.44030 | -81.27460 | 16877 ft | 342 kts | 308° |
| 2026-05-06 18:35 | 35.45547 | -81.29692 | 17407 ft | 340 kts | 302° |
| 2026-05-06 18:35 | 35.46884 | -81.32038 | 17913 ft | 342 kts | 301° |
| 2026-05-06 18:36 | 35.48268 | -81.34426 | 18430 ft | 345 kts | 301° |
| 2026-05-06 18:36 | 35.49667 | -81.36828 | 18893 ft | 347 kts | 301° |
| 2026-05-06 18:36 | 35.51067 | -81.39262 | 19361 ft | 350 kts | 301° |
| 2026-05-06 18:36 | 35.52473 | -81.41721 | 19841 ft | 353 kts | 301° |
| 2026-05-06 18:37 | 35.53892 | -81.44196 | 20321 ft | 356 kts | 301° |
| 2026-05-06 18:37 | 35.54949 | -81.45803 | 20625 ft | 362 kts | 306° |
| 2026-05-06 18:37 | 35.57394 | -81.48654 | 21279 ft | 371 kts | 315° |
| 2026-05-06 18:37 | 35.59498 | -81.50548 | 21744 ft | 377 kts | 318° |
| 2026-05-06 18:38 | 35.61627 | -81.52436 | 22242 ft | 379 kts | 317° |
| 2026-05-06 18:38 | 35.63765 | -81.54365 | 22708 ft | 382 kts | 317° |
| 2026-05-06 18:38 | 35.65931 | -81.56291 | 23191 ft | 386 kts | 318° |
| 2026-05-06 18:38 | 35.68141 | -81.58195 | 23683 ft | 390 kts | 319° |
| 2026-05-06 18:39 | 35.70368 | -81.60119 | 24090 ft | 392 kts | 318° |
| 2026-05-06 18:39 | 35.72605 | -81.62087 | 24490 ft | 395 kts | 318° |
| 2026-05-06 18:39 | 35.74847 | -81.64066 | 24882 ft | 398 kts | 318° |
| 2026-05-06 18:40 | 35.79406 | -81.68051 | 25658 ft | 405 kts | 318° |
| 2026-05-06 18:40 | 35.81676 | -81.70044 | 26045 ft | 407 kts | 317° |
| 2026-05-06 18:40 | 35.83990 | -81.72081 | 26437 ft | 410 kts | 317° |
| 2026-05-06 18:40 | 35.86321 | -81.74131 | 26808 ft | 413 kts | 317° |
| 2026-05-06 18:41 | 35.88666 | -81.76191 | 27190 ft | 416 kts | 317° |
| 2026-05-06 18:41 | 35.91037 | -81.78277 | 27547 ft | 419 kts | 317° |
| 2026-05-06 18:41 | 35.93415 | -81.80373 | 27943 ft | 421 kts | 317° |
| 2026-05-06 18:41 | 35.95806 | -81.82482 | 28324 ft | 424 kts | 317° |
| 2026-05-06 18:42 | 35.98220 | -81.84611 | 28689 ft | 427 kts | 317° |
| 2026-05-06 18:42 | 36.00645 | -81.86752 | 29007 ft | 431 kts | 317° |
| 2026-05-06 18:42 | 36.03087 | -81.88910 | 29385 ft | 432 kts | 317° |
| 2026-05-06 18:42 | 36.05537 | -81.91076 | 29699 ft | 435 kts | 317° |
| 2026-05-06 18:43 | 36.08005 | -81.93261 | 29988 ft | 438 kts | 317° |
| 2026-05-06 18:43 | 36.10490 | -81.95461 | 30265 ft | 439 kts | 317° |
| 2026-05-06 18:43 | 36.12974 | -81.97659 | 30558 ft | 438 kts | 316° |
| 2026-05-06 18:43 | 36.15418 | -81.99832 | 30736 ft | 438 kts | 316° |
| 2026-05-06 18:44 | 36.17889 | -82.02025 | 31047 ft | 435 kts | 316° |
| 2026-05-06 18:44 | 36.20334 | -82.04189 | 31397 ft | 430 kts | 316° |
| 2026-05-06 18:44 | 36.22764 | -82.06351 | 31654 ft | 427 kts | 315° |
| 2026-05-06 18:44 | 36.25166 | -82.08495 | 31953 ft | 424 kts | 315° |
| 2026-05-06 18:45 | 36.27553 | -82.10620 | 32316 ft | 420 kts | 315° |
| 2026-05-06 18:45 | 36.29917 | -82.12722 | 32648 ft | 416 kts | 315° |
| 2026-05-06 18:45 | 36.32257 | -82.14810 | 32976 ft | 413 kts | 314° |
| 2026-05-06 18:45 | 36.33792 | -82.16184 | 33240 ft | 410 kts | 314° |
| 2026-05-06 18:46 | 36.36864 | -82.18925 | 33851 ft | 403 kts | 314° |
| 2026-05-06 18:46 | 36.39125 | -82.20943 | 34284 ft | 398 kts | 313° |
| 2026-05-06 18:46 | 36.41363 | -82.22949 | 34654 ft | 395 kts | 313° |
| 2026-05-06 18:46 | 36.43588 | -82.24944 | 35035 ft | 393 kts | 313° |
| 2026-05-06 18:47 | 36.45798 | -82.26923 | 35428 ft | 390 kts | 313° |
| 2026-05-06 18:47 | 36.47988 | -82.28884 | 35819 ft | 387 kts | 313° |
| 2026-05-06 18:47 | 36.50160 | -82.30834 | 36208 ft | 384 kts | 312° |
| 2026-05-06 18:47 | 36.52295 | -82.32751 | 36610 ft | 381 kts | 312° |
| 2026-05-06 18:48 | 36.54437 | -82.34675 | 37015 ft | 379 kts | 312° |
| 2026-05-06 18:48 | 36.56569 | -82.36592 | 37441 ft | 376 kts | 311° |
| 2026-05-06 18:48 | 36.58682 | -82.38493 | 37854 ft | 372 kts | 311° |
| 2026-05-06 18:49 | 36.62944 | -82.42353 | 37952 ft | 388 kts | 311° |
| 2026-05-06 18:49 | 36.67427 | -82.46385 | 37967 ft | 405 kts | 312° |
| 2026-05-06 18:50 | 36.72069 | -82.50578 | 37950 ft | 418 kts | 312° |
| 2026-05-06 18:50 | 36.76796 | -82.54851 | 37972 ft | 425 kts | 312° |
| 2026-05-06 18:51 | 36.81610 | -82.59212 | 37975 ft | 430 kts | 312° |
| 2026-05-06 18:51 | 36.86463 | -82.63624 | 37972 ft | 432 kts | 312° |
| 2026-05-06 18:52 | 36.90502 | -82.67300 | 37976 ft | 432 kts | 312° |
| 2026-05-06 18:52 | 36.95337 | -82.71708 | 37979 ft | 430 kts | 312° |
| 2026-05-06 18:53 | 37.00172 | -82.76126 | 37966 ft | 430 kts | 312° |
| 2026-05-06 18:53 | 37.05004 | -82.80542 | 37958 ft | 430 kts | 311° |
| 2026-05-06 18:54 | 37.09826 | -82.84965 | 37938 ft | 429 kts | 311° |
| 2026-05-06 18:54 | 37.14610 | -82.89354 | 37921 ft | 429 kts | 311° |
| 2026-05-06 18:55 | 37.19410 | -82.93766 | 37941 ft | 427 kts | 311° |
| 2026-05-06 18:55 | 37.24202 | -82.98179 | 37949 ft | 427 kts | 311° |
| 2026-05-06 18:56 | 37.28987 | -83.02591 | 37957 ft | 426 kts | 311° |
| 2026-05-06 18:56 | 37.33771 | -83.07012 | 37977 ft | 426 kts | 311° |
| 2026-05-06 18:57 | 37.38542 | -83.11425 | 37987 ft | 426 kts | 311° |
| 2026-05-06 18:57 | 37.43326 | -83.15860 | 37993 ft | 428 kts | 311° |
| 2026-05-06 18:58 | 37.48133 | -83.20319 | 37986 ft | 430 kts | 311° |
| 2026-05-06 18:58 | 37.52916 | -83.24765 | 37986 ft | 430 kts | 310° |
| 2026-05-06 18:59 | 37.57724 | -83.29244 | 37996 ft | 429 kts | 311° |
| 2026-05-06 18:59 | 37.62538 | -83.33733 | 37987 ft | 430 kts | 310° |
| 2026-05-06 19:00 | 37.67356 | -83.38237 | 37985 ft | 431 kts | 310° |
| 2026-05-06 19:00 | 37.72143 | -83.42715 | 37983 ft | 431 kts | 310° |
| 2026-05-06 19:01 | 37.76964 | -83.47235 | 37978 ft | 432 kts | 310° |
| 2026-05-06 19:01 | 37.81790 | -83.51766 | 37977 ft | 432 kts | 310° |
| 2026-05-06 19:02 | 37.86624 | -83.56312 | 37976 ft | 432 kts | 310° |
| 2026-05-06 19:02 | 37.91445 | -83.60852 | 37977 ft | 431 kts | 310° |
| 2026-05-06 19:03 | 37.96256 | -83.65395 | 37976 ft | 431 kts | 310° |
| 2026-05-06 19:03 | 38.01067 | -83.69942 | 37977 ft | 431 kts | 310° |
| 2026-05-06 19:04 | 38.05872 | -83.74491 | 38005 ft | 431 kts | 310° |
| 2026-05-06 19:04 | 38.10646 | -83.79020 | 38005 ft | 430 kts | 310° |
| 2026-05-06 19:05 | 38.15443 | -83.83577 | 38010 ft | 430 kts | 310° |
| 2026-05-06 19:05 | 38.20232 | -83.88134 | 38009 ft | 430 kts | 310° |
| 2026-05-06 19:06 | 38.25020 | -83.92698 | 37999 ft | 430 kts | 310° |
| 2026-05-06 19:06 | 38.29803 | -83.97265 | 38001 ft | 429 kts | 310° |
| 2026-05-06 19:07 | 38.34578 | -84.01832 | 37989 ft | 429 kts | 310° |
| 2026-05-06 19:07 | 38.39317 | -84.06372 | 37996 ft | 428 kts | 310° |
| 2026-05-06 19:08 | 38.44072 | -84.10936 | 37983 ft | 428 kts | 310° |
| 2026-05-06 19:08 | 38.48822 | -84.15501 | 37989 ft | 427 kts | 309° |
| 2026-05-06 19:09 | 38.53562 | -84.20066 | 37993 ft | 426 kts | 309° |
| 2026-05-06 19:09 | 38.58299 | -84.24634 | 37994 ft | 425 kts | 309° |
| 2026-05-06 19:10 | 38.62951 | -84.29255 | 37977 ft | 418 kts | 306° |
| 2026-05-06 19:10 | 38.66889 | -84.34464 | 37986 ft | 403 kts | 298° |
| 2026-05-06 19:11 | 38.70216 | -84.40140 | 37990 ft | 398 kts | 296° |
| 2026-05-06 19:11 | 38.73537 | -84.45823 | 37996 ft | 398 kts | 296° |
| 2026-05-06 19:12 | 38.76826 | -84.51518 | 37996 ft | 398 kts | 296° |
| 2026-05-06 19:12 | 38.80130 | -84.57219 | 37989 ft | 398 kts | 296° |
| 2026-05-06 19:13 | 38.83423 | -84.62924 | 37995 ft | 397 kts | 295° |
| 2026-05-06 19:13 | 38.86708 | -84.68622 | 37983 ft | 397 kts | 295° |
| 2026-05-06 19:14 | 38.89989 | -84.74322 | 38002 ft | 397 kts | 295° |
| 2026-05-06 19:14 | 38.93270 | -84.80034 | 37989 ft | 397 kts | 295° |
| 2026-05-06 19:15 | 38.96544 | -84.85742 | 38001 ft | 396 kts | 295° |
| 2026-05-06 19:15 | 38.99792 | -84.91417 | 37994 ft | 396 kts | 295° |
| 2026-05-06 19:16 | 39.03053 | -84.97123 | 37996 ft | 396 kts | 295° |
| 2026-05-06 19:16 | 39.06308 | -85.02829 | 38002 ft | 393 kts | 295° |
| 2026-05-06 19:17 | 39.09529 | -85.08485 | 38007 ft | 392 kts | 295° |
| 2026-05-06 19:17 | 39.12740 | -85.14139 | 38014 ft | 394 kts | 295° |
| 2026-05-06 19:18 | 39.15976 | -85.19837 | 38014 ft | 395 kts | 295° |
| 2026-05-06 19:18 | 39.19219 | -85.25563 | 38015 ft | 395 kts | 295° |
| 2026-05-06 19:19 | 39.22458 | -85.31293 | 38019 ft | 395 kts | 295° |
| 2026-05-06 19:19 | 39.25690 | -85.37019 | 38017 ft | 394 kts | 295° |
| 2026-05-06 19:20 | 39.28919 | -85.42752 | 38021 ft | 394 kts | 295° |
| 2026-05-06 19:20 | 39.32120 | -85.48443 | 38023 ft | 394 kts | 294° |
| 2026-05-06 19:21 | 39.35340 | -85.54178 | 38016 ft | 394 kts | 294° |
| 2026-05-06 19:21 | 39.38557 | -85.59921 | 38023 ft | 394 kts | 294° |
| 2026-05-06 19:22 | 39.41770 | -85.65663 | 38021 ft | 394 kts | 294° |
| 2026-05-06 19:22 | 39.44980 | -85.71415 | 38022 ft | 394 kts | 294° |
| 2026-05-06 19:23 | 39.48187 | -85.77167 | 38022 ft | 394 kts | 294° |
| 2026-05-06 19:23 | 39.51397 | -85.82937 | 38023 ft | 395 kts | 294° |
| 2026-05-06 19:24 | 39.54602 | -85.88708 | 38027 ft | 394 kts | 294° |
| 2026-05-06 19:24 | 39.57786 | -85.94455 | 38026 ft | 395 kts | 294° |
| 2026-05-06 19:25 | 39.60987 | -86.00237 | 38045 ft | 395 kts | 294° |
| 2026-05-06 19:25 | 39.64186 | -86.06032 | 38045 ft | 395 kts | 294° |
| 2026-05-06 19:26 | 39.67385 | -86.11833 | 38044 ft | 395 kts | 294° |
| 2026-05-06 19:26 | 39.70585 | -86.17649 | 38032 ft | 395 kts | 294° |
| 2026-05-06 19:27 | 39.73780 | -86.23466 | 38032 ft | 395 kts | 294° |
| 2026-05-06 19:27 | 39.76971 | -86.29286 | 38036 ft | 395 kts | 294° |
| 2026-05-06 19:28 | 39.80145 | -86.35086 | 38024 ft | 396 kts | 294° |
| 2026-05-06 19:28 | 39.83339 | -86.40933 | 38027 ft | 396 kts | 294° |
| 2026-05-06 19:29 | 39.86531 | -86.46788 | 38025 ft | 397 kts | 294° |
| 2026-05-06 19:29 | 39.89724 | -86.52654 | 38030 ft | 397 kts | 294° |
| 2026-05-06 19:30 | 39.92927 | -86.58550 | 38028 ft | 398 kts | 294° |
| 2026-05-06 19:30 | 39.96139 | -86.64400 | 38035 ft | 402 kts | 296° |
| 2026-05-06 19:31 | 40.00001 | -86.69858 | 38034 ft | 418 kts | 304° |
| 2026-05-06 19:31 | 40.07353 | -86.76614 | 38037 ft | 447 kts | 317° |
| 2026-05-06 19:32 | 40.12993 | -86.80137 | 38045 ft | 452 kts | 319° |
| 2026-05-06 19:32 | 40.18664 | -86.83706 | 38042 ft | 453 kts | 319° |
| 2026-05-06 19:33 | 40.24367 | -86.87258 | 38036 ft | 454 kts | 319° |
| 2026-05-06 19:33 | 40.30066 | -86.90838 | 38039 ft | 454 kts | 319° |
| 2026-05-06 19:34 | 40.35782 | -86.94424 | 38045 ft | 455 kts | 319° |
| 2026-05-06 19:34 | 40.41459 | -86.97998 | 38045 ft | 456 kts | 319° |
| 2026-05-06 19:35 | 40.47184 | -87.01607 | 38045 ft | 457 kts | 319° |
| 2026-05-06 19:35 | 40.52923 | -87.05232 | 38034 ft | 458 kts | 319° |
| 2026-05-06 19:36 | 40.58843 | -87.08591 | 38027 ft | 469 kts | 324° |
| 2026-05-06 19:36 | 40.64878 | -87.11708 | 38037 ft | 468 kts | 323° |
| 2026-05-06 19:37 | 40.70962 | -87.14856 | 38036 ft | 471 kts | 324° |
| 2026-05-06 19:37 | 40.76082 | -87.17495 | 38041 ft | 472 kts | 324° |
| 2026-05-06 19:38 | 40.83195 | -87.21195 | 38045 ft | 474 kts | 324° |
| 2026-05-06 19:38 | 40.89343 | -87.24397 | 38048 ft | 475 kts | 324° |
| 2026-05-06 19:39 | 40.95507 | -87.27617 | 38044 ft | 477 kts | 324° |
| 2026-05-06 19:39 | 41.01687 | -87.30848 | 38043 ft | 478 kts | 325° |
| 2026-05-06 19:40 | 41.06840 | -87.33550 | 38038 ft | 479 kts | 325° |
| 2026-05-06 19:40 | 41.13050 | -87.36810 | 38033 ft | 480 kts | 325° |
| 2026-05-06 19:41 | 41.20283 | -87.40616 | 38037 ft | 482 kts | 325° |
| 2026-05-06 19:41 | 41.26540 | -87.43914 | 38026 ft | 485 kts | 326° |
| 2026-05-06 19:42 | 41.31810 | -87.46697 | 38026 ft | 487 kts | 326° |
| 2026-05-06 19:42 | 41.38093 | -87.50021 | 38032 ft | 490 kts | 326° |
| 2026-05-06 19:43 | 41.44448 | -87.53389 | 38038 ft | 492 kts | 326° |
| 2026-05-06 19:43 | 41.50819 | -87.56773 | 38039 ft | 493 kts | 326° |
| 2026-05-06 19:44 | 41.57206 | -87.60174 | 38037 ft | 494 kts | 326° |
| 2026-05-06 19:44 | 41.63598 | -87.63584 | 38030 ft | 494 kts | 326° |
| 2026-05-06 19:45 | 41.69994 | -87.67004 | 38027 ft | 495 kts | 327° |
| 2026-05-06 19:45 | 41.76384 | -87.70429 | 38029 ft | 495 kts | 327° |
| 2026-05-06 19:46 | 41.82777 | -87.73861 | 38027 ft | 495 kts | 327° |
| 2026-05-06 19:46 | 41.89129 | -87.77281 | 38027 ft | 495 kts | 327° |
| 2026-05-06 19:47 | 41.95531 | -87.80734 | 38019 ft | 495 kts | 327° |
| 2026-05-06 19:47 | 42.01930 | -87.84193 | 38016 ft | 495 kts | 327° |
| 2026-05-06 19:48 | 42.08330 | -87.87660 | 38025 ft | 496 kts | 327° |
| 2026-05-06 19:48 | 42.14729 | -87.91134 | 38024 ft | 496 kts | 327° |
| 2026-05-06 19:49 | 42.21128 | -87.94606 | 38024 ft | 497 kts | 328° |
| 2026-05-06 19:49 | 42.27829 | -87.97229 | 38000 ft | 506 kts | 335° |
| 2026-05-06 19:50 | 42.34613 | -87.99754 | 37996 ft | 506 kts | 334° |
| 2026-05-06 19:50 | 42.41424 | -88.02242 | 38000 ft | 507 kts | 335° |
| 2026-05-06 19:51 | 42.48227 | -88.04758 | 38004 ft | 507 kts | 335° |
| 2026-05-06 19:51 | 42.55042 | -88.07274 | 38008 ft | 508 kts | 335° |
| 2026-05-06 19:52 | 42.61869 | -88.09803 | 38003 ft | 508 kts | 335° |
| 2026-05-06 19:52 | 42.68694 | -88.12339 | 38004 ft | 509 kts | 335° |
| 2026-05-06 19:53 | 42.75531 | -88.14881 | 38003 ft | 509 kts | 335° |
| 2026-05-06 19:53 | 42.82329 | -88.17418 | 38001 ft | 510 kts | 335° |
| 2026-05-06 19:54 | 42.89186 | -88.19981 | 38002 ft | 510 kts | 335° |
| 2026-05-06 19:54 | 42.96039 | -88.22549 | 38007 ft | 511 kts | 335° |
| 2026-05-06 19:55 | 43.02907 | -88.25128 | 38007 ft | 511 kts | 335° |
| 2026-05-06 19:55 | 43.09763 | -88.27710 | 38008 ft | 511 kts | 335° |
| 2026-05-06 19:56 | 43.16623 | -88.30301 | 38000 ft | 510 kts | 335° |
| 2026-05-06 19:56 | 43.19921 | -88.31954 | 37988 ft | 499 kts | 327° |
| 2026-05-06 19:56 | 43.22928 | -88.34216 | 37983 ft | 488 kts | 319° |
| 2026-05-06 19:57 | 43.25583 | -88.37028 | 37991 ft | 477 kts | 310° |
| 2026-05-06 19:57 | 43.27830 | -88.40310 | 37973 ft | 468 kts | 302° |
| 2026-05-06 19:57 | 43.29627 | -88.43977 | 37977 ft | 454 kts | 293° |
| 2026-05-06 19:57 | 43.30885 | -88.47745 | 37917 ft | 416 kts | 284° |
| 2026-05-06 19:58 | 43.31595 | -88.51455 | 37777 ft | 390 kts | 277° |
| 2026-05-06 19:58 | 43.32052 | -88.55086 | 37667 ft | 386 kts | 275° |
| 2026-05-06 19:58 | 43.32580 | -88.62388 | 36681 ft | 382 kts | 269° |
| 2026-05-06 19:59 | 43.32554 | -88.66109 | 35257 ft | 386 kts | 265° |
| 2026-05-06 19:59 | 43.32322 | -88.69722 | 34137 ft | 382 kts | 261° |
| 2026-05-06 19:59 | 43.31873 | -88.73291 | 32811 ft | 377 kts | 257° |
| 2026-05-06 19:59 | 43.31211 | -88.76752 | 31472 ft | 372 kts | 253° |
| 2026-05-06 20:00 | 43.30347 | -88.80066 | 30104 ft | 367 kts | 249° |
| 2026-05-06 20:00 | 43.29295 | -88.83206 | 28795 ft | 356 kts | 246° |
| 2026-05-06 20:00 | 43.28091 | -88.86125 | 27441 ft | 348 kts | 242° |
| 2026-05-06 20:00 | 43.26759 | -88.88865 | 26131 ft | 340 kts | 240° |
| 2026-05-06 20:01 | 43.25450 | -88.91527 | 24893 ft | 332 kts | 240° |
| 2026-05-06 20:01 | 43.24194 | -88.94141 | 23684 ft | 325 kts | 241° |
| 2026-05-06 20:01 | 43.22959 | -88.96708 | 22178 ft | 320 kts | 240° |
| 2026-05-06 20:01 | 43.21718 | -88.99265 | 20495 ft | 324 kts | 240° |
| 2026-05-06 20:02 | 43.20467 | -89.01832 | 18952 ft | 329 kts | 239° |
| 2026-05-06 20:02 | 43.19187 | -89.04461 | 17369 ft | 334 kts | 239° |
| 2026-05-06 20:02 | 43.17898 | -89.07109 | 16033 ft | 332 kts | 239° |
| 2026-05-06 20:02 | 43.16625 | -89.09720 | 14766 ft | 328 kts | 239° |
| 2026-05-06 20:03 | 43.15360 | -89.12313 | 13484 ft | 326 kts | 239° |
| 2026-05-06 20:03 | 43.14102 | -89.14892 | 12211 ft | 324 kts | 239° |
| 2026-05-06 20:03 | 43.12886 | -89.17376 | 11758 ft | 302 kts | 238° |
| 2026-05-06 20:03 | 43.11767 | -89.19655 | 11601 ft | 275 kts | 239° |
| 2026-05-06 20:04 | 43.10734 | -89.21767 | 11092 ft | 264 kts | 239° |
| 2026-05-06 20:04 | 43.09710 | -89.23874 | 10301 ft | 267 kts | 239° |
| 2026-05-06 20:04 | 43.08682 | -89.25972 | 9599 ft | 265 kts | 238° |
| 2026-05-06 20:04 | 43.07653 | -89.28066 | 8876 ft | 264 kts | 239° |
| 2026-05-06 20:05 | 43.06652 | -89.30106 | 8198 ft | 261 kts | 239° |
| 2026-05-06 20:05 | 43.05637 | -89.32155 | 7530 ft | 259 kts | 238° |
| 2026-05-06 20:05 | 43.04312 | -89.33842 | 6726 ft | 267 kts | 214° |
| 2026-05-06 20:05 | 43.02548 | -89.34665 | 6054 ft | 272 kts | 192° |
| 2026-05-06 20:06 | 43.00665 | -89.34775 | 5414 ft | 270 kts | 185° |
| 2026-05-06 20:06 | 42.98802 | -89.34478 | 4621 ft | 276 kts | 165° |
| 2026-05-06 20:06 | 42.97166 | -89.33097 | 4038 ft | 277 kts | 142° |
| 2026-05-06 20:06 | 42.95765 | -89.31308 | 3492 ft | 274 kts | 138° |
| 2026-05-06 20:07 | 42.94387 | -89.29497 | 2822 ft | 275 kts | 139° |
| 2026-05-06 20:07 | 42.92975 | -89.27698 | 2719 ft | 278 kts | 139° |
| 2026-05-06 20:07 | 42.91558 | -89.25906 | 2702 ft | 277 kts | 139° |
| 2026-05-06 20:07 | 42.90139 | -89.24200 | 2677 ft | 268 kts | 146° |
| 2026-05-06 20:08 | 42.88427 | -89.23279 | 2653 ft | 265 kts | 173° |
| 2026-05-06 20:08 | 42.86621 | -89.23370 | 2675 ft | 257 kts | 198° |
| 2026-05-06 20:08 | 42.85039 | -89.24382 | 2690 ft | 254 kts | 218° |
| 2026-05-06 20:08 | 42.83880 | -89.26114 | 2694 ft | 244 kts | 242° |
| 2026-05-06 20:09 | 42.83297 | -89.28251 | 2703 ft | 240 kts | 261° |
| 2026-05-06 20:09 | 42.83326 | -89.30511 | 2699 ft | 239 kts | 282° |
| 2026-05-06 20:09 | 42.83958 | -89.32579 | 2730 ft | 238 kts | 301° |
| 2026-05-06 20:09 | 42.85115 | -89.34193 | 2951 ft | 240 kts | 323° |
| 2026-05-06 20:10 | 42.86609 | -89.35035 | 3918 ft | 229 kts | 343° |
| 2026-05-06 20:10 | 42.88212 | -89.35093 | 4584 ft | 234 kts | 359° |
| 2026-05-06 20:10 | 42.89778 | -89.34983 | 5293 ft | 213 kts | 358° |
| 2026-05-06 20:10 | 42.91201 | -89.35006 | 5574 ft | 207 kts | 349° |
| 2026-05-06 20:11 | 42.92765 | -89.35130 | 4980 ft | 246 kts | 356° |
| 2026-05-06 20:11 | 42.94525 | -89.35035 | 4571 ft | 256 kts | 359° |
| 2026-05-06 20:11 | 42.96290 | -89.34938 | 4213 ft | 248 kts | 358° |
| 2026-05-06 20:11 | 42.97928 | -89.34852 | 3876 ft | 223 kts | 358° |
| 2026-05-06 20:12 | 42.99434 | -89.34792 | 3564 ft | 212 kts | 356° |
| 2026-05-06 20:12 | 43.00859 | -89.34727 | 3282 ft | 199 kts | 357° |
| 2026-05-06 20:12 | 43.02179 | -89.34664 | 3019 ft | 181 kts | 356° |
| 2026-05-06 20:12 | 43.03406 | -89.34616 | 2776 ft | 172 kts | 356° |
| 2026-05-06 20:13 | 43.04551 | -89.34559 | 2547 ft | 161 kts | 354° |
| 2026-05-06 20:13 | 43.05661 | -89.34520 | 2324 ft | 150 kts | 356° |
| 2026-05-06 20:13 | 43.06633 | -89.34468 | 2111 ft | 130 kts | 354° |
| 2026-05-06 20:13 | 43.07487 | -89.34435 | 1951 ft | 118 kts | 353° |
| 2026-05-06 20:14 | 43.08309 | -89.34395 | 1821 ft | 117 kts | 356° |
| 2026-05-06 20:14 | 43.09100 | -89.34357 | 1760 ft | 110 kts | 355° |
| 2026-05-06 20:14 | 43.09885 | -89.34316 | 1646 ft | 115 kts | 355° |
| 2026-05-06 20:14 | 43.10661 | -89.34264 | 1516 ft | 108 kts | 355° |
| 2026-05-06 20:15 | 43.11442 | -89.34257 | 1193 ft | 116 kts | 355° |
| 2026-05-06 20:15 | 43.12238 | -89.34222 | 1000 ft | 111 kts | 355° |
| 2026-05-06 20:15 | 43.12983 | -89.34190 | 874 ft | 100 kts | 356° |
| 2026-05-06 20:15 | 43.13571 | -89.34182 | 863 ft | 62 kts | 4° |
| 2026-05-06 20:16 | 43.13911 | -89.34156 | 860 ft | 40 kts | 5° |
| 2026-05-06 20:16 | 43.14044 | -89.34091 | 867 ft | 16 kts | 71° |
| 2026-05-06 20:16 | 43.14047 | -89.33936 | 864 ft | 17 kts | 94° |
| 2026-05-06 20:16 | 43.14044 | -89.33792 | 867 ft | 2 kts | 93° |